Terminal Aerodrome Forecast
Issued by NWS Louisville, KY

Home | Current Version | Previous Version | Text Only | Print | Product List | Glossary On
Versions: 1 2 3 4 5 6 7 8 9 10 11 12 13 14 15 16 17 18 19 20 21 22 23 24 25 26 27
000
FTUS43 KLMK 170343 AAA
TAFLEX
TAF AMD
KLEX 170343Z 1704/1724 15009KT P6SM VCSH SCT045 BKN090
      TEMPO 1705/1707 4SM -SHRA BR BKN040
     FM170700 19011KT 4SM -SHRA BR OVC035 WS020/20050KT
     FM170900 19014KT 4SM -SHRA BR OVC022 WS020/20050KT
     FM171200 20015G20KT 6SM -SHRA BR OVC012
     FM171500 22014G21KT P6SM OVC018
     FM171800 24013G18KT P6SM SCT022 BKN040=

USA.gov is the U.S. government's official web portal to all federal, state and local government web resources and services.